Time;durP1;ratioP1;P1;durP2;ratioP2;P2;SDS_P1;SDS_P2;PMS_P1;PMS_P2;Temp;Humidity;BMP_temperature;BMP_pressure;BME280_temperature;BME280_humidity;BME280_pressure;Samples;Min_cycle;Max_cycle;Signal;HPM_P1;HPM_P2
2022/07/01 00:01:50;;;;;;;16.83;3.10;;;43.70;27.50;;;;;;4928991;29;20031;-66
2022/07/01 00:04:17;;;;;;;13.95;2.63;;;43.80;27.10;;;;;;4928708;29;20383;-67
2022/07/01 00:06:43;;;;;;;17.90;3.55;;;43.80;30.00;;;;;;4934429;29;20034;-67
2022/07/01 00:09:10;;;;;;;15.98;2.88;;;43.70;27.10;;;;;;4936216;29;20131;-67
2022/07/01 00:11:36;;;;;;;12.23;2.55;;;43.70;27.50;;;;;;4929790;28;20518;-68
2022/07/01 00:14:02;;;;;;;13.80;2.70;;;43.70;27.60;;;;;;4932289;29;20047;-69
2022/07/01 00:16:29;;;;;;;11.65;2.30;;;43.50;27.60;;;;;;4933206;28;20505;-69
2022/07/01 00:18:55;;;;;;;15.00;2.67;;;43.50;27.90;;;;;;4929725;29;20028;-67
2022/07/01 00:21:22;;;;;;;9.40;2.25;;;43.50;27.90;;;;;;4929850;28;20481;-69
2022/07/01 00:23:48;;;;;;;11.90;2.45;;;43.50;28.00;;;;;;4929275;29;20044;-68
2022/07/01 00:26:15;;;;;;;29.35;3.00;;;43.30;27.80;;;;;;4930457;28;20038;-66
2022/07/01 00:28:41;;;;;;;15.80;2.63;;;43.30;27.90;;;;;;4928726;29;20761;-67
2022/07/01 00:31:08;;;;;;;12.52;2.45;;;43.20;28.30;;;;;;4932346;28;20438;-68
2022/07/01 00:33:34;;;;;;;19.90;2.80;;;43.10;28.40;;;;;;4929353;28;20074;-67
2022/07/01 00:36:00;;;;;;;17.90;2.92;;;42.90;28.50;;;;;;4930179;29;20039;-67
2022/07/01 00:38:27;;;;;;;28.17;2.72;;;43.00;28.80;;;;;;4929219;29;20125;-68
2022/07/01 00:40:54;;;;;;;16.42;2.83;;;42.90;28.50;;;;;;4914394;29;20144;-68
2022/07/01 00:43:24;;;;;;;16.98;3.03;;;42.90;28.70;;;;;;4930841;29;20120;-67
2022/07/01 00:45:52;;;;;;;9.77;2.33;;;42.90;28.70;;;;;;4929300;28;20032;-67
2022/07/01 00:48:21;;;;;;;19.83;2.95;;;42.70;29.00;;;;;;4930301;29;20409;-70
2022/07/01 00:50:48;;;;;;;15.10;2.90;;;42.60;29.20;;;;;;4914388;29;20052;-69
2022/07/01 00:53:17;;;;;;;18.23;3.28;;;42.50;29.40;;;;;;4930015;29;20059;-69
2022/07/01 00:55:43;;;;;;;15.77;3.15;;;42.50;29.70;;;;;;4913693;29;20061;-68
2022/07/01 00:58:10;;;;;;;15.82;3.10;;;42.40;29.70;;;;;;4936069;28;20101;-68
2022/07/01 01:00:40;;;;;;;20.73;3.20;;;42.50;29.40;;;;;;4932466;29;20086;-71
2022/07/01 01:03:11;;;;;;;19.98;2.88;;;42.40;29.50;;;;;;4931617;29;20046;-71
2022/07/01 01:05:41;;;;;;;14.95;3.08;;;42.20;29.50;;;;;;4932905;29;20068;-68
2022/07/01 01:08:10;;;;;;;15.90;3.90;;;42.10;29.70;;;;;;4932356;28;20619;-66
2022/07/01 01:10:37;;;;;;;10.50;2.80;;;41.90;29.80;;;;;;4949264;28;20066;-71
2022/07/01 01:13:04;;;;;;;21.88;3.10;;;41.90;29.90;;;;;;4916932;29;20047;-68
2022/07/01 01:15:31;;;;;;;11.82;3.15;;;41.80;30.00;;;;;;4933090;29;20146;-68
2022/07/01 01:17:58;;;;;;;10.93;2.80;;;41.90;30.10;;;;;;4937837;29;20525;-69
2022/07/01 01:20:24;;;;;;;26.85;3.20;;;41.80;30.00;;;;;;4939296;28;20081;-69
2022/07/01 01:22:51;;;;;;;14.82;3.33;;;41.80;30.40;;;;;;4932389;29;20141;-67
2022/07/01 01:25:18;;;;;;;13.20;2.50;;;41.70;30.40;;;;;;4935006;29;20041;-65
2022/07/01 01:27:45;;;;;;;18.40;3.20;;;41.60;30.20;;;;;;4932957;28;20048;-67
2022/07/01 01:30:13;;;;;;;8.85;2.95;;;41.50;30.50;;;;;;4934498;29;20055;-66
2022/07/01 01:32:40;;;;;;;18.50;3.00;;;41.40;31.00;;;;;;4934057;29;20081;-66
2022/07/01 01:35:08;;;;;;;17.60;2.95;;;41.20;31.00;;;;;;4943248;29;20038;-67
2022/07/01 01:37:35;;;;;;;16.65;2.60;;;41.20;31.00;;;;;;4930652;29;20508;-66
2022/07/01 01:40:02;;;;;;;22.58;4.03;;;41.10;31.20;;;;;;4932431;29;20049;-68
2022/07/01 01:42:28;;;;;;;17.88;3.58;;;41.10;33.30;;;;;;4933597;29;20094;-67
2022/07/01 01:44:57;;;;;;;28.73;4.43;;;41.00;35.90;;;;;;4933504;28;20476;-67
2022/07/01 01:47:24;;;;;;;21.77;4.05;;;40.90;36.20;;;;;;4932657;29;20045;-70
2022/07/01 01:49:51;;;;;;;34.97;4.07;;;40.60;36.40;;;;;;4931579;29;20527;-69
2022/07/01 01:52:17;;;;;;;22.75;3.88;;;40.50;36.60;;;;;;4932681;29;20570;-69
2022/07/01 01:54:44;;;;;;;16.92;3.65;;;40.20;45.30;;;;;;4930949;29;20054;-68
2022/07/01 01:57:10;;;;;;;19.67;3.50;;;40.20;46.00;;;;;;4931095;28;20475;-71
2022/07/01 01:59:37;;;;;;;29.20;4.60;;;;;;;;;;4930858;28;20431;-70
2022/07/01 02:02:03;;;;;;;21.50;3.53;;;40.10;37.20;;;;;;4929454;28;20087;-68
2022/07/01 02:04:30;;;;;;;24.90;3.80;;;39.40;60.30;;;;;;4929667;28;20513;-69
2022/07/01 02:06:56;;;;;;;22.83;3.88;;;40.00;39.50;;;;;;4929617;29;20043;-70
2022/07/01 02:09:23;;;;;;;28.05;3.50;;;39.50;39.80;;;;;;4929794;29;20102;-68
2022/07/01 02:11:49;;;;;;;25.35;3.72;;;39.60;38.50;;;;;;4933437;29;20091;-69
2022/07/01 02:14:16;;;;;;;21.90;3.65;;;39.70;38.70;;;;;;4931914;29;20042;-71
2022/07/01 02:16:42;;;;;;;27.40;3.70;;;39.60;38.30;;;;;;4934908;28;20063;-67
2022/07/01 02:19:09;;;;;;;22.10;3.88;;;39.30;38.00;;;;;;4931709;28;20028;-70
2022/07/01 02:21:35;;;;;;;20.98;3.67;;;;;;;;;;4932026;28;20044;-70
2022/07/01 02:24:02;;;;;;;15.32;3.80;;;;;;;;;;4930763;29;20027;-67
2022/07/01 02:26:30;;;;;;;16.42;3.55;;;39.30;71.40;;;;;;4931248;29;20056;-66
2022/07/01 02:28:56;;;;;;;12.32;3.58;;;39.60;59.50;;;;;;4933065;29;20525;-67
2022/07/01 02:31:23;;;;;;;12.40;3.45;;;39.00;55.00;;;;;;4936798;28;20548;-70
2022/07/01 02:33:49;;;;;;;12.75;3.30;;;39.10;47.70;;;;;;4931476;28;20089;-69
2022/07/01 02:36:16;;;;;;;19.13;3.97;;;;;;;;;;4931640;29;20020;-67
2022/07/01 02:38:42;;;;;;;18.92;3.92;;;39.10;40.90;;;;;;4932823;29;20131;-68
2022/07/01 02:41:09;;;;;;;23.60;3.83;;;39.40;43.70;;;;;;4932591;28;20066;-67
2022/07/01 02:43:36;;;;;;;18.10;3.70;;;39.30;46.90;;;;;;4916455;29;20438;-70
2022/07/01 02:46:03;;;;;;;23.83;3.47;;;39.00;43.70;;;;;;4931263;29;20096;-69
2022/07/01 02:48:29;;;;;;;16.13;2.60;;;38.50;50.20;;;;;;4932899;29;20068;-69
2022/07/01 02:50:56;;;;;;;21.50;3.15;;;;;;;;;;4930701;28;20111;-68
2022/07/01 02:53:22;;;;;;;20.02;3.00;;;39.30;41.10;;;;;;4932063;28;20123;-67
2022/07/01 02:55:48;;;;;;;17.13;3.63;;;38.80;55.10;;;;;;4930371;29;20637;-70
2022/07/01 02:58:15;;;;;;;16.77;3.78;;;;;;;;;;4931427;29;20059;-67
2022/07/01 03:00:41;;;;;;;14.30;3.15;;;38.50;48.80;;;;;;4931232;28;20509;-67
2022/07/01 03:03:08;;;;;;;20.95;3.75;;;38.90;38.20;;;;;;4930989;28;20056;-68
2022/07/01 03:05:34;;;;;;;18.88;3.35;;;38.90;50.80;;;;;;4931405;28;20039;-67
2022/07/01 03:08:01;;;;;;;18.98;3.90;;;38.70;37.90;;;;;;4930886;29;20478;-68
2022/07/01 03:10:27;;;;;;;21.38;3.63;;;;;;;;;;4946871;28;20105;-67
2022/07/01 03:12:54;;;;;;;14.93;3.35;;;38.70;43.50;;;;;;4932614;28;20140;-68
2022/07/01 03:15:20;;;;;;;18.67;4.00;;;38.60;38.60;;;;;;4931367;28;20093;-70
2022/07/01 03:17:50;;;;;;;25.98;3.65;;;38.60;38.60;;;;;;4932034;29;20049;-69
2022/07/01 03:20:17;;;;;;;17.70;3.08;;;38.60;38.90;;;;;;4928621;29;20151;-67
2022/07/01 03:22:46;;;;;;;22.30;3.65;;;38.50;38.90;;;;;;4930877;29;20078;-68
2022/07/01 03:25:12;;;;;;;24.58;3.30;;;38.50;39.10;;;;;;4912792;29;20104;-66
2022/07/01 03:27:44;;;;;;;14.82;3.00;;;38.40;39.20;;;;;;4930300;29;20059;-67
2022/07/01 03:30:13;;;;;;;12.93;3.17;;;38.40;39.90;;;;;;4931225;28;20413;-67
2022/07/01 03:32:40;;;;;;;15.02;3.20;;;38.30;39.70;;;;;;4931332;29;20065;-66
2022/07/01 03:35:35;;;;;;;18.33;2.88;;;38.30;39.40;;;;;;4930643;29;20077;-67
2022/07/01 03:37:54;;;;;;;13.63;2.47;;;38.20;35.00;;;;;;4931809;29;20058;-67
2022/07/01 03:40:20;;;;;;;12.77;2.10;;;38.10;29.90;;;;;;4929607;29;20522;-69
2022/07/01 03:42:46;;;;;;;13.10;2.63;;;38.10;28.40;;;;;;4929005;28;20068;-69
2022/07/01 03:45:13;;;;;;;18.25;2.60;;;38.10;27.30;;;;;;4930941;29;20103;-66
2022/07/01 03:47:46;;;;;;;6.47;1.75;;;38.10;26.60;;;;;;4929882;28;20111;-67
2022/07/01 03:50:12;;;;;;;14.80;2.15;;;38.10;26.50;;;;;;4930787;29;20686;-68
2022/07/01 03:52:41;;;;;;;9.85;2.42;;;38.10;26.30;;;;;;4929804;29;20499;-67
2022/07/01 03:55:11;;;;;;;7.45;2.13;;;38.00;26.30;;;;;;4962788;23;20445;-68
2022/07/01 03:57:38;;;;;;;7.25;2.13;;;37.90;26.50;;;;;;4950108;28;20555;-68
2022/07/01 04:00:08;;;;;;;13.93;1.83;;;37.90;26.20;;;;;;4948850;29;20057;-68
2022/07/01 04:02:35;;;;;;;8.88;1.90;;;37.90;26.00;;;;;;4965201;28;20630;-69
2022/07/01 04:05:01;;;;;;;10.05;2.00;;;37.90;26.00;;;;;;4949761;28;20064;-71
2022/07/01 04:07:27;;;;;;;9.02;2.38;;;37.80;26.00;;;;;;4949963;28;20080;-71
2022/07/01 04:09:54;;;;;;;9.13;1.77;;;37.80;25.90;;;;;;4949999;28;20073;-70
2022/07/01 04:12:21;;;;;;;9.18;2.17;;;37.70;26.20;;;;;;4950472;29;20078;-68
2022/07/01 04:14:47;;;;;;;10.02;2.40;;;37.70;26.20;;;;;;4949896;29;20060;-71
2022/07/01 04:17:14;;;;;;;11.80;2.40;;;37.60;26.00;;;;;;4950177;28;20066;-69
2022/07/01 04:19:41;;;;;;;13.10;2.33;;;37.50;26.40;;;;;;4965559;28;20073;-71
2022/07/01 04:24:51;;;;;;;13.85;2.00;;;37.40;26.50;;;;;;4949788;29;20132;-71
2022/07/01 04:27:18;;;;;;;12.15;2.03;;;37.40;26.50;;;;;;4933768;29;20511;-68
2022/07/01 04:29:51;;;;;;;6.72;1.70;;;37.20;26.60;;;;;;4949862;28;20083;-71
2022/07/01 04:32:18;;;;;;;12.00;2.38;;;37.20;26.40;;;;;;4950328;28;20084;-68
2022/07/01 04:34:51;;;;;;;13.70;2.30;;;37.20;26.70;;;;;;4968726;28;20059;-72
2022/07/01 04:37:17;;;;;;;9.40;2.13;;;37.10;26.60;;;;;;4935180;29;20049;-71
2022/07/01 04:39:55;;;;;;;7.95;2.13;;;37.20;26.30;;;;;;4946817;29;20159;-73
2022/07/01 04:42:22;;;;;;;14.30;2.08;;;37.10;26.90;;;;;;4936473;29;20093;-69
2022/07/01 04:44:48;;;;;;;4.82;1.80;;;37.10;26.60;;;;;;4935420;29;20113;-68
2022/07/01 04:47:17;;;;;;;13.40;1.98;;;37.00;26.60;;;;;;4935224;29;20068;-71
2022/07/01 04:49:44;;;;;;;14.95;1.90;;;37.00;26.50;;;;;;4934604;29;20523;-69
2022/07/01 04:52:10;;;;;;;7.75;2.15;;;36.90;26.60;;;;;;4949005;29;20084;-70
2022/07/01 04:54:36;;;;;;;15.48;2.53;;;36.90;26.50;;;;;;4933205;29;20128;-68
2022/07/01 04:57:06;;;;;;;9.55;2.30;;;36.90;26.80;;;;;;4933711;29;20067;-68
2022/07/01 04:59:33;;;;;;;6.65;2.10;;;36.80;26.70;;;;;;4933280;29;20076;-69
2022/07/01 05:01:59;;;;;;;11.75;2.63;;;36.70;27.20;;;;;;4933343;29;20078;-68
2022/07/01 05:04:27;;;;;;;9.88;2.63;;;36.60;28.20;;;;;;4949121;29;20030;-68
2022/07/01 05:06:54;;;;;;;21.35;2.90;;;36.50;28.40;;;;;;4949568;29;20561;-69
2022/07/01 05:09:21;;;;;;;11.77;2.90;;;36.40;28.60;;;;;;4949002;29;20524;-69
2022/07/01 05:11:47;;;;;;;22.35;3.10;;;36.30;28.60;;;;;;4933852;29;20099;-69
2022/07/01 05:14:17;;;;;;;12.77;2.75;;;36.30;28.30;;;;;;4934798;29;20069;-70
2022/07/01 05:16:43;;;;;;;11.68;2.10;;;36.30;28.10;;;;;;4948911;29;20372;-69
2022/07/01 05:21:58;;;;;;;7.45;2.00;;;;;;;;;;4934762;29;20079;-67
2022/07/01 05:24:28;;;;;;;13.52;1.80;;;36.20;26.90;;;;;;4934677;29;20065;-70
2022/07/01 05:26:54;;;;;;;9.00;2.00;;;35.90;27.10;;;;;;4931002;29;20100;-68
2022/07/01 05:29:21;;;;;;;13.18;2.50;;;36.10;28.70;;;;;;4933446;29;20056;-69
2022/07/01 05:31:48;;;;;;;12.52;2.33;;;36.20;38.50;;;;;;4934296;29;20031;-68
2022/07/01 05:34:14;;;;;;;8.05;2.15;;;35.90;28.20;;;;;;4934429;29;20086;-68
2022/07/01 05:36:41;;;;;;;7.70;1.98;;;35.90;28.60;;;;;;4933414;29;20085;-69
2022/07/01 05:39:08;;;;;;;12.13;1.92;;;35.80;28.40;;;;;;4933834;29;20038;-70
2022/07/01 05:41:35;;;;;;;7.45;2.47;;;35.70;28.10;;;;;;4948905;29;20547;-69
2022/07/01 05:44:01;;;;;;;13.48;2.20;;;35.70;28.00;;;;;;4932657;29;20149;-67
2022/07/01 05:46:27;;;;;;;9.13;1.90;;;35.60;28.20;;;;;;4934646;29;20056;-68
2022/07/01 05:48:54;;;;;;;7.68;1.90;;;35.60;27.90;;;;;;4934505;29;20133;-67
2022/07/01 05:51:21;;;;;;;9.25;2.22;;;35.60;28.60;;;;;;4934504;29;20092;-67
2022/07/01 05:53:47;;;;;;;9.45;1.98;;;35.50;28.10;;;;;;4932923;29;20159;-69
2022/07/01 05:56:15;;;;;;;11.77;2.25;;;35.50;28.90;;;;;;4934437;29;20086;-69
2022/07/01 05:58:41;;;;;;;9.98;1.98;;;35.40;28.60;;;;;;4934276;29;20528;-68
2022/07/01 06:01:08;;;;;;;7.65;2.08;;;35.40;28.30;;;;;;4934827;29;20075;-68
2022/07/01 06:03:35;;;;;;;10.52;2.13;;;35.30;26.80;;;;;;4934471;29;20031;-68
2022/07/01 06:06:01;;;;;;;4.88;1.85;;;35.10;29.80;;;;;;4934507;29;20082;-69
2022/07/01 06:08:28;;;;;;;9.57;2.17;;;35.00;35.00;;;;;;4934198;29;20036;-68
2022/07/01 06:10:55;;;;;;;12.02;2.55;;;35.30;30.20;;;;;;4933937;29;20118;-68
2022/07/01 06:13:21;;;;;;;9.15;1.92;;;35.30;26.40;;;;;;4948279;29;20067;-66
2022/07/01 06:15:48;;;;;;;9.15;1.73;;;35.30;26.30;;;;;;4947674;29;20440;-69
2022/07/01 06:18:17;;;;;;;8.93;2.00;;;35.30;26.60;;;;;;4932887;29;20145;-70
2022/07/01 06:20:44;;;;;;;8.77;2.20;;;35.30;26.50;;;;;;4934085;29;20099;-69
2022/07/01 06:23:11;;;;;;;12.10;1.75;;;35.30;26.80;;;;;;4933763;29;20084;-67
2022/07/01 06:25:37;;;;;;;10.00;1.90;;;35.20;26.50;;;;;;4933950;29;20082;-68
2022/07/01 06:28:03;;;;;;;7.22;1.48;;;35.20;26.40;;;;;;4930982;29;20174;-70
2022/07/01 06:30:33;;;;;;;11.20;1.90;;;35.10;27.10;;;;;;4933292;29;20585;-69
2022/07/01 06:32:59;;;;;;;10.38;1.98;;;35.10;26.80;;;;;;4932235;29;20082;-68
2022/07/01 06:35:26;;;;;;;8.20;1.80;;;35.00;27.20;;;;;;4933904;29;20469;-67
2022/07/01 06:37:52;;;;;;;10.32;2.42;;;34.90;27.40;;;;;;4932805;29;20071;-67
2022/07/01 06:40:19;;;;;;;9.20;2.20;;;34.80;27.50;;;;;;4934160;29;20074;-69
2022/07/01 06:42:45;;;;;;;11.30;2.78;;;34.80;27.00;;;;;;4946602;29;20105;-67
2022/07/01 06:45:18;;;;;;;12.52;4.55;;;34.80;30.00;;;;;;4948834;28;20081;-69
2022/07/01 06:47:44;;;;;;;20.17;4.88;;;34.70;38.10;;;;;;4932085;29;20071;-67
2022/07/01 06:50:11;;;;;;;24.35;4.78;;;34.50;39.80;;;;;;4947226;29;20110;-70
2022/07/01 06:52:37;;;;;;;34.97;5.47;;;34.40;40.60;;;;;;4933386;29;20070;-72
2022/07/01 06:55:04;;;;;;;37.97;5.38;;;34.50;40.90;;;;;;4947663;28;20117;-67
2022/07/01 06:57:31;;;;;;;28.27;5.57;;;34.30;41.40;;;;;;4930984;29;20082;-67
2022/07/01 06:59:57;;;;;;;26.58;5.57;;;34.20;43.50;;;;;;4930752;29;20445;-66
2022/07/01 07:02:23;;;;;;;26.52;5.20;;;34.20;44.30;;;;;;4946218;29;20083;-67
2022/07/01 07:04:50;;;;;;;24.30;5.38;;;34.10;44.60;;;;;;4931107;29;20075;-67
2022/07/01 07:07:16;;;;;;;35.83;4.70;;;34.00;44.90;;;;;;4931032;29;20251;-68
2022/07/01 07:09:46;;;;;;;24.90;4.35;;;34.00;44.70;;;;;;4930864;29;20134;-67
2022/07/01 07:12:12;;;;;;;15.07;4.35;;;33.90;44.40;;;;;;4932013;29;20568;-69
2022/07/01 07:14:38;;;;;;;19.15;4.25;;;33.80;44.60;;;;;;4930314;29;21025;-66
2022/07/01 07:17:05;;;;;;;18.17;4.68;;;33.60;45.00;;;;;;4944381;29;20075;-69
2022/07/01 07:19:31;;;;;;;31.73;5.90;;;33.50;45.60;;;;;;4945710;28;20122;-72
2022/07/01 07:21:57;;;;;;;30.52;4.53;;;33.50;46.00;;;;;;4946671;29;20082;-70
2022/07/01 07:24:24;;;;;;;34.80;5.00;;;33.50;46.00;;;;;;4943848;29;20083;-67
2022/07/01 07:26:50;;;;;;;29.80;5.22;;;33.40;46.40;;;;;;4929417;29;20139;-69
2022/07/01 07:29:17;;;;;;;19.45;4.68;;;33.50;46.10;;;;;;4947169;28;20081;-69
2022/07/01 07:31:43;;;;;;;14.15;3.80;;;33.30;46.50;;;;;;4930446;29;20605;-69
2022/07/01 07:34:09;;;;;;;17.48;4.30;;;33.30;46.80;;;;;;4929585;29;20558;-67
2022/07/01 07:36:36;;;;;;;15.93;4.13;;;33.20;46.90;;;;;;4945996;28;20130;-68
2022/07/01 07:39:04;;;;;;;20.65;4.30;;;33.10;46.90;;;;;;4931489;29;20071;-68
2022/07/01 07:41:31;;;;;;;18.42;3.90;;;33.00;47.30;;;;;;4945652;29;20079;-69
2022/07/01 07:43:57;;;;;;;12.57;3.65;;;33.00;47.90;;;;;;4930773;29;20098;-68
2022/07/01 07:46:23;;;;;;;20.35;4.07;;;33.00;48.10;;;;;;4930159;29;20153;-68
2022/07/01 07:48:50;;;;;;;16.25;3.58;;;33.00;47.90;;;;;;4930770;29;20083;-69
2022/07/01 07:51:18;;;;;;;11.65;3.70;;;33.10;47.60;;;;;;4929539;29;20087;-68
2022/07/01 07:53:44;;;;;;;16.60;3.50;;;33.00;48.40;;;;;;4930046;29;20166;-69
2022/07/01 07:56:11;;;;;;;59.78;5.47;;;32.90;48.50;;;;;;4929579;29;20126;-69
2022/07/01 07:58:41;;;;;;;23.10;4.70;;;32.90;48.20;;;;;;4930197;29;20079;-68
2022/07/01 08:01:08;;;;;;;15.32;4.35;;;32.90;48.50;;;;;;4928793;29;20079;-68
2022/07/01 08:03:35;;;;;;;16.70;4.68;;;32.90;49.10;;;;;;4929758;29;20079;-68
2022/07/01 08:06:01;;;;;;;15.32;4.80;;;32.80;49.90;;;;;;4926573;29;20490;-69
2022/07/01 08:08:28;;;;;;;22.10;5.00;;;32.70;50.00;;;;;;4934728;29;20075;-69
2022/07/01 08:10:55;;;;;;;40.20;5.45;;;32.70;50.20;;;;;;4949144;29;20091;-69
2022/07/01 08:13:21;;;;;;;19.27;5.22;;;32.60;50.50;;;;;;4931045;29;20075;-68
2022/07/01 08:15:48;;;;;;;23.13;5.85;;;32.70;51.40;;;;;;4932816;29;20087;-67
2022/07/01 08:18:14;;;;;;;18.50;5.72;;;32.60;51.60;;;;;;4934752;29;20130;-68
2022/07/01 08:20:40;;;;;;;20.42;6.65;;;32.50;51.70;;;;;;4932323;29;20091;-69
2022/07/01 08:23:07;;;;;;;24.67;6.50;;;32.50;51.80;;;;;;4934041;29;20150;-68
2022/07/01 08:25:33;;;;;;;18.25;5.65;;;32.40;52.10;;;;;;4932913;29;20211;-68
2022/07/01 08:28:00;;;;;;;21.25;6.20;;;32.50;52.50;;;;;;4932279;29;20142;-67
2022/07/01 08:30:26;;;;;;;19.50;6.38;;;32.50;52.10;;;;;;4930343;29;20113;-68
2022/07/01 08:32:52;;;;;;;18.58;6.15;;;32.50;52.60;;;;;;4930860;29;20190;-69
2022/07/01 08:35:19;;;;;;;25.38;5.65;;;32.50;52.80;;;;;;4932483;29;20095;-67
2022/07/01 08:37:49;;;;;;;25.33;5.60;;;32.30;53.30;;;;;;4934100;29;20457;-68
2022/07/01 08:40:15;;;;;;;20.05;5.45;;;32.30;54.00;;;;;;4933891;29;20154;-69
2022/07/01 08:42:42;;;;;;;16.20;5.03;;;32.30;54.50;;;;;;4933179;29;20117;-68
2022/07/01 08:45:09;;;;;;;23.02;5.68;;;32.20;55.20;;;;;;4933299;29;20078;-69
2022/07/01 08:47:50;;;;;;;17.73;4.72;;;32.20;55.50;;;;;;4932463;29;20182;-69
2022/07/01 08:50:17;;;;;;;15.27;4.10;;;32.30;55.80;;;;;;4932545;29;20107;-68
2022/07/01 08:52:43;;;;;;;19.55;5.15;;;32.30;56.40;;;;;;4932061;29;20071;-68
2022/07/01 08:55:09;;;;;;;16.70;4.80;;;32.20;56.50;;;;;;4931956;29;20106;-69
2022/07/01 08:57:36;;;;;;;16.42;4.32;;;32.20;56.00;;;;;;4933536;29;20083;-69
2022/07/01 09:00:08;;;;;;;14.30;4.82;;;32.10;56.20;;;;;;4948211;29;20593;-69
2022/07/01 09:03:09;;;;;;;21.65;5.07;;;32.00;56.50;;;;;;4932756;29;20143;-66
2022/07/01 09:05:36;;;;;;;18.83;4.40;;;32.10;56.50;;;;;;4896443;29;20141;-65
2022/07/01 09:08:06;;;;;;;14.50;4.00;;;32.00;56.40;;;;;;4898273;29;20174;-65
2022/07/01 09:10:37;;;;;;;17.17;4.72;;;32.10;56.00;;;;;;4896527;29;20232;-64
2022/07/01 09:13:07;;;;;;;14.75;3.63;;;32.10;55.80;;;;;;4897599;29;21615;-65
2022/07/01 09:15:35;;;;;;;19.92;4.18;;;32.00;55.20;;;;;;4897297;29;20079;-65
2022/07/01 09:18:14;;;;;;;18.25;4.72;;;32.00;55.60;;;;;;4896629;29;20094;-65
2022/07/01 09:20:43;;;;;;;14.38;4.22;;;32.10;55.20;;;;;;4896723;29;20094;-64
2022/07/01 09:23:15;;;;;;;20.25;4.68;;;32.20;54.90;;;;;;4912439;29;20170;-66
2022/07/01 09:25:47;;;;;;;13.77;4.43;;;31.90;59.80;;;;;;4898855;29;20601;-67
2022/07/01 09:28:15;;;;;;;17.48;5.53;;;32.10;54.70;;;;;;4914942;29;20090;-64
2022/07/01 09:30:45;;;;;;;17.42;4.95;;;32.30;68.30;;;;;;4912041;29;20040;-64
2022/07/01 09:33:19;;;;;;;13.55;4.43;;;32.10;56.20;;;;;;4896712;29;20085;-64
2022/07/01 09:35:51;;;;;;;9.27;4.10;;;32.10;55.70;;;;;;4897692;29;20131;-64
2022/07/01 09:38:23;;;;;;;12.82;4.70;;;32.10;60.10;;;;;;4912676;29;20028;-64
2022/07/01 09:41:00;;;;;;;12.52;3.90;;;32.10;54.60;;;;;;4931775;29;20122;-66
2022/07/01 09:43:26;;;;;;;12.00;3.60;;;;;;;;;;4933116;29;20912;-64
2022/07/01 09:45:59;;;;;;;15.57;4.10;;;31.70;87.50;;;;;;4933659;29;20051;-66
2022/07/01 09:48:45;;;;;;;15.38;4.18;;;32.00;59.30;;;;;;4932052;29;20048;-64
2022/07/01 09:51:12;;;;;;;;;;;31.90;53.50;;;;;;4932069;29;20181;-64
2022/07/01 09:53:39;;;;;;;;;;;32.00;54.20;;;;;;4948207;29;19990;-66
2022/07/01 09:56:06;;;;;;;23.45;4.40;;;32.00;53.60;;;;;;4932113;29;20499;-63
2022/07/01 09:58:32;;;;;;;16.60;3.67;;;32.00;54.20;;;;;;4931031;29;20218;-64
2022/07/01 10:00:59;;;;;;;16.25;3.72;;;32.00;53.80;;;;;;4932775;29;20083;-64
2022/07/01 10:03:26;;;;;;;18.20;3.97;;;32.00;53.70;;;;;;4931604;29;20091;-64
2022/07/01 10:06:27;;;;;;;15.73;3.92;;;31.90;53.40;;;;;;4931424;29;20086;-65
2022/07/01 10:09:13;;;;;;;18.17;4.05;;;31.90;53.60;;;;;;4946877;29;20079;-63
2022/07/01 10:12:12;;;;;;;16.30;4.05;;;31.90;53.70;;;;;;4931732;29;20457;-63
2022/07/01 10:14:40;;;;;;;18.58;4.53;;;31.90;54.10;;;;;;4932082;29;20082;-63
2022/07/01 10:17:07;;;;;;;19.92;4.28;;;31.90;54.50;;;;;;4931542;29;20095;-64
2022/07/01 10:19:33;;;;;;;16.08;4.13;;;31.30;84.30;;;;;;4931601;29;20031;-66
2022/07/01 10:22:26;;;;;;;11.77;3.90;;;31.60;55.10;;;;;;4931378;29;20866;-63
2022/07/01 10:24:52;;;;;;;14.48;4.82;;;31.20;58.30;;;;;;4947650;29;20129;-65
2022/07/01 10:27:24;;;;;;;24.15;5.07;;;31.70;55.40;;;;;;4931873;29;20527;-64
2022/07/01 10:30:15;;;;;;;14.73;4.40;;;31.50;54.90;;;;;;4930771;29;20115;-65
2022/07/01 10:32:51;;;;;;;18.92;4.75;;;31.70;54.40;;;;;;4931930;29;20576;-66
2022/07/01 10:35:18;;;;;;;15.38;3.92;;;31.50;53.90;;;;;;4929892;29;20094;-65
2022/07/01 10:38:01;;;;;;;14.23;4.45;;;31.50;53.90;;;;;;4931365;29;20146;-67
2022/07/01 10:40:50;;;;;;;14.52;4.50;;;31.50;54.00;;;;;;4930875;29;20529;-65
2022/07/01 10:43:33;;;;;;;17.75;4.68;;;31.50;53.90;;;;;;4931917;29;20106;-66
2022/07/01 10:46:00;;;;;;;17.88;4.50;;;31.60;54.00;;;;;;4930795;29;20592;-65
2022/07/01 10:48:30;;;;;;;21.10;4.70;;;31.60;54.00;;;;;;4931272;29;20122;-65
2022/07/01 10:50:56;;;;;;;20.42;4.07;;;31.60;54.00;;;;;;4931349;29;20095;-64
2022/07/01 10:53:23;;;;;;;22.23;4.60;;;31.50;55.30;;;;;;4930517;29;20186;-64
2022/07/01 10:55:53;;;;;;;16.85;4.30;;;31.50;54.90;;;;;;4930345;29;20142;-65
2022/07/01 10:58:37;;;;;;;21.15;4.68;;;31.40;54.50;;;;;;4930922;29;20134;-65
2022/07/01 11:01:04;;;;;;;16.95;4.85;;;31.30;54.50;;;;;;4931013;29;20091;-65
2022/07/01 11:03:36;;;;;;;15.70;4.90;;;31.30;54.50;;;;;;4931566;29;20083;-65
2022/07/01 11:06:03;;;;;;;21.52;4.68;;;31.30;54.40;;;;;;4932132;29;20075;-65
2022/07/01 11:08:29;;;;;;;21.35;5.85;;;31.20;53.90;;;;;;4930865;29;20154;-63
2022/07/01 11:10:59;;;;;;;28.17;6.45;;;31.20;53.90;;;;;;4946091;29;20178;-65
2022/07/01 11:13:27;;;;;;;20.08;5.93;;;31.20;53.40;;;;;;4930864;29;20075;-67
2022/07/01 11:15:54;;;;;;;24.02;7.32;;;31.20;53.10;;;;;;4930067;29;20071;-67
2022/07/01 11:18:22;;;;;;;20.45;6.85;;;31.20;52.90;;;;;;4945075;29;20079;-65
2022/07/01 11:20:49;;;;;;;26.85;7.20;;;31.20;52.80;;;;;;4930293;29;20107;-64
2022/07/01 11:23:16;;;;;;;28.10;7.15;;;31.10;53.10;;;;;;4914267;29;20079;-64
2022/07/01 11:25:42;;;;;;;26.23;6.90;;;31.10;53.10;;;;;;4930697;29;20134;-64
2022/07/01 11:28:12;;;;;;;26.38;7.20;;;31.00;52.90;;;;;;4930002;29;20134;-65
2022/07/01 11:30:38;;;;;;;25.50;8.05;;;31.00;52.80;;;;;;4929921;29;20506;-64
2022/07/01 11:33:05;;;;;;;20.75;6.50;;;31.00;52.50;;;;;;4929793;29;20091;-64
2022/07/01 11:41:06;;;;;;;30.13;9.95;;;30.90;52.50;;;;;;4931285;29;20650;-64
2022/07/01 11:43:37;;;;;;;28.42;9.27;;;30.80;52.50;;;;;;4931299;29;20095;-66
2022/07/01 11:46:05;;;;;;;39.10;10.65;;;30.70;52.70;;;;;;4929116;29;20071;-64
2022/07/01 11:48:38;;;;;;;38.67;11.75;;;30.70;52.50;;;;;;4929808;29;20099;-65
2022/07/01 11:51:11;;;;;;;46.58;12.98;;;30.60;52.40;;;;;;4945245;29;20134;-64
2022/07/01 11:53:39;;;;;;;41.90;11.35;;;30.60;52.60;;;;;;4929982;29;20149;-64
2022/07/01 11:56:06;;;;;;;36.13;10.32;;;30.70;52.60;;;;;;4945541;29;20110;-64
2022/07/01 11:58:47;;;;;;;22.60;9.02;;;30.70;52.50;;;;;;4931389;29;21439;-66
2022/07/01 12:01:24;;;;;;;30.05;9.02;;;30.70;52.20;;;;;;4928954;29;20075;-65
2022/07/01 12:03:50;;;;;;;29.67;9.25;;;30.50;52.50;;;;;;4930930;29;20113;-65
2022/07/01 12:06:19;;;;;;;36.45;8.65;;;30.50;52.80;;;;;;4931247;29;20083;-64
2022/07/01 12:08:47;;;;;;;27.23;7.03;;;30.50;52.60;;;;;;4928515;29;20091;-65
2022/07/01 12:11:14;;;;;;;31.10;7.10;;;30.50;52.50;;;;;;4929996;29;20098;-64
2022/07/01 12:13:40;;;;;;;24.50;7.68;;;30.50;52.50;;;;;;4946328;29;20452;-64
2022/07/01 12:16:11;;;;;;;24.17;6.68;;;30.50;52.70;;;;;;4929695;29;20567;-64
2022/07/01 12:18:38;;;;;;;26.17;7.50;;;30.40;52.70;;;;;;4931158;29;20170;-67
2022/07/01 12:21:05;;;;;;;24.67;6.32;;;30.40;52.70;;;;;;4945097;29;20457;-67
2022/07/01 12:23:32;;;;;;;32.25;6.93;;;30.40;52.80;;;;;;4929823;29;20079;-65
2022/07/01 12:25:58;;;;;;;31.27;7.47;;;30.40;53.00;;;;;;4929594;29;20071;-64
2022/07/01 12:28:39;;;;;;;31.00;6.53;;;30.40;53.80;;;;;;4945710;28;20079;-67
2022/07/01 12:31:07;;;;;;;33.83;6.75;;;30.30;53.40;;;;;;4928348;29;20149;-64
2022/07/01 12:33:50;;;;;;;28.13;6.93;;;30.30;53.40;;;;;;4929620;29;20601;-63
2022/07/01 12:36:16;;;;;;;26.98;6.25;;;30.30;53.40;;;;;;4928624;29;20150;-67
2022/07/01 12:38:44;;;;;;;31.63;6.25;;;30.30;53.60;;;;;;4929051;29;20717;-64
2022/07/01 12:41:36;;;;;;;40.17;7.05;;;30.20;53.90;;;;;;4929727;29;20075;-65
2022/07/01 12:44:22;;;;;;;31.13;6.80;;;30.30;54.10;;;;;;4930518;29;20071;-64
2022/07/01 12:46:48;;;;;;;31.67;7.13;;;30.20;54.20;;;;;;4929799;29;20077;-64
2022/07/01 12:49:22;;;;;;;35.50;6.40;;;30.10;54.70;;;;;;4928590;29;20099;-64
2022/07/01 12:51:49;;;;;;;31.75;6.22;;;30.10;55.00;;;;;;4943699;29;20083;-67
2022/07/01 12:54:32;;;;;;;27.65;6.97;;;30.10;55.20;;;;;;4932253;29;20596;-65
2022/07/01 12:57:00;;;;;;;34.28;6.82;;;30.00;56.10;;;;;;4932864;29;20593;-63
2022/07/01 12:59:26;;;;;;;38.22;6.30;;;30.00;55.90;;;;;;4932690;29;20453;-65